Time,TemperatureF,DewpointF,PressureIn,WindDirection,WindDirectionDegrees,WindSpeedMPH,WindSpeedGustMPH,Humidity,HourlyPrecipIn,Conditions,Clouds,dailyrainin,SoftwareType,DateUTC
2013-04-26 00:00:00,37.6,18.1,29.65,SW,224,2.0,3.0,45,0.00,,,0.00,Weather View 32 v70,2013-04-26 04:00:00,
2013-04-26 00:01:00,37.6,17.6,29.65,SW,224,0.0,3.0,44,0.00,,,0.00,Weather View 32 v70,2013-04-26 04:01:00,
2013-04-26 00:06:00,37.0,19.1,29.65,SW,224,0.0,3.0,48,0.00,,,0.00,Weather View 32 v70,2013-04-26 04:06:00,
2013-04-26 00:11:00,36.0,19.1,29.65,SW,224,0.0,3.0,50,0.00,,,0.00,Weather View 32 v70,2013-04-26 04:11:00,
2013-04-26 00:16:00,35.2,19.4,29.65,SW,224,0.0,3.0,52,0.00,,,0.00,Weather View 32 v70,2013-04-26 04:16:00,
2013-04-26 00:21:00,35.1,19.6,29.65,SW,224,0.0,3.0,53,0.00,,,0.00,Weather View 32 v70,2013-04-26 04:21:00,
2013-04-26 00:26:00,35.2,19.4,29.65,SW,219,0.0,3.0,52,0.00,,,0.00,Weather View 32 v70,2013-04-26 04:26:00,
2013-04-26 00:31:00,35.6,19.2,29.65,SW,215,3.0,4.0,51,0.00,,,0.00,Weather View 32 v70,2013-04-26 04:31:00,
2013-04-26 00:36:00,36.3,19.4,29.68,SW,215,2.0,4.0,50,0.00,,,0.00,Weather View 32 v70,2013-04-26 04:36:00,
2013-04-26 00:41:00,36.1,19.3,29.68,SW,215,0.0,4.0,50,0.00,,,0.00,Weather View 32 v70,2013-04-26 04:41:00,
2013-04-26 00:46:00,36.1,19.3,29.68,SW,215,0.0,4.0,50,0.00,,,0.00,Weather View 32 v70,2013-04-26 04:46:00,
2013-04-26 00:51:00,36.5,19.1,29.68,SW,215,2.0,4.0,49,0.00,,,0.00,Weather View 32 v70,2013-04-26 04:51:00,
2013-04-26 00:56:00,36.5,19.1,29.68,SW,215,2.0,4.0,49,0.00,,,0.00,Weather View 32 v70,2013-04-26 04:56:00,
2013-04-26 01:01:00,36.3,19.4,29.68,SW,227,2.0,4.0,50,0.00,,,0.00,Weather View 32 v70,2013-04-26 05:01:00,
2013-04-26 01:06:00,36.5,19.6,29.68,SW,214,0.0,4.0,50,0.00,,,0.00,Weather View 32 v70,2013-04-26 05:06:00,
2013-04-26 01:11:00,36.9,19.9,29.68,SW,214,0.0,4.0,50,0.00,,,0.00,Weather View 32 v70,2013-04-26 05:11:00,
2013-04-26 01:16:00,36.7,19.8,29.68,SW,214,0.0,4.0,50,0.00,,,0.00,Weather View 32 v70,2013-04-26 05:16:00,
2013-04-26 01:21:00,36.1,19.7,29.68,SW,214,0.0,4.0,51,0.00,,,0.00,Weather View 32 v70,2013-04-26 05:21:00,
2013-04-26 01:26:00,35.1,18.7,29.68,SW,214,0.0,4.0,51,0.00,,,0.00,Weather View 32 v70,2013-04-26 05:26:00,
2013-04-26 01:31:00,34.2,18.8,29.68,SW,214,0.0,3.0,53,0.00,,,0.00,Weather View 32 v70,2013-04-26 05:31:00,
2013-04-26 01:36:00,33.6,19.2,29.68,SW,214,0.0,3.0,55,0.00,,,0.00,Weather View 32 v70,2013-04-26 05:36:00,
2013-04-26 01:41:00,33.3,19.2,29.68,SW,214,0.0,3.0,56,0.00,,,0.00,Weather View 32 v70,2013-04-26 05:41:00,
2013-04-26 01:46:00,32.9,19.3,29.68,SW,214,0.0,3.0,57,0.00,,,0.00,Weather View 32 v70,2013-04-26 05:46:00,
2013-04-26 01:51:00,32.7,20.0,29.68,SW,214,0.0,3.0,59,0.00,,,0.00,Weather View 32 v70,2013-04-26 05:51:00,
2013-04-26 01:56:00,32.4,20.8,29.68,SW,214,0.0,3.0,62,0.00,,,0.00,Weather View 32 v70,2013-04-26 05:56:00,
2013-04-26 02:01:00,32.2,21.7,29.68,SW,214,0.0,3.0,65,0.00,,,0.00,Weather View 32 v70,2013-04-26 06:01:00,
2013-04-26 02:06:00,32.0,21.9,29.68,SW,214,0.0,0.0,66,0.00,,,0.00,Weather View 32 v70,2013-04-26 06:06:00,
2013-04-26 02:11:00,31.8,22.5,29.68,SW,214,0.0,0.0,68,0.00,,,0.00,Weather View 32 v70,2013-04-26 06:11:00,
2013-04-26 02:16:00,31.8,22.8,29.68,SW,214,0.0,0.0,69,0.00,,,0.00,Weather View 32 v70,2013-04-26 06:16:00,
2013-04-26 02:21:00,31.6,23.3,29.71,SW,214,0.0,0.0,71,0.00,,,0.00,Weather View 32 v70,2013-04-26 06:21:00,
2013-04-26 02:26:00,31.6,23.6,29.71,SW,214,0.0,0.0,72,0.00,,,0.00,Weather View 32 v70,2013-04-26 06:26:00,
2013-04-26 02:31:00,31.6,23.6,29.71,SW,214,0.0,0.0,72,0.00,,,0.00,Weather View 32 v70,2013-04-26 06:31:00,
2013-04-26 02:36:00,31.6,24.0,29.71,SW,214,0.0,0.0,73,0.00,,,0.00,Weather View 32 v70,2013-04-26 06:36:00,
2013-04-26 02:41:00,31.5,23.5,29.71,SW,214,0.0,0.0,72,0.00,,,0.00,Weather View 32 v70,2013-04-26 06:41:00,
2013-04-26 02:46:00,31.5,23.8,29.71,SW,214,0.0,0.0,73,0.00,,,0.00,Weather View 32 v70,2013-04-26 06:46:00,
2013-04-26 02:51:00,31.3,23.6,29.71,SW,214,0.0,0.0,73,0.00,,,0.00,Weather View 32 v70,2013-04-26 06:51:00,
2013-04-26 02:56:00,31.3,24.0,29.71,SW,214,0.0,0.0,74,0.00,,,0.00,Weather View 32 v70,2013-04-26 06:56:00,
2013-04-26 03:01:00,31.1,23.8,29.71,SW,214,0.0,0.0,74,0.00,,,0.00,Weather View 32 v70,2013-04-26 07:01:00,
2013-04-26 03:06:00,30.9,23.6,29.71,SW,214,0.0,0.0,74,0.00,,,0.00,Weather View 32 v70,2013-04-26 07:06:00,
2013-04-26 03:11:00,30.9,23.9,29.71,SW,214,0.0,0.0,75,0.00,,,0.00,Weather View 32 v70,2013-04-26 07:11:00,
2013-04-26 03:16:00,30.9,24.2,29.71,SW,214,0.0,0.0,76,0.00,,,0.00,Weather View 32 v70,2013-04-26 07:16:00,
2013-04-26 03:21:00,30.7,24.1,29.71,SW,214,0.0,0.0,76,0.00,,,0.00,Weather View 32 v70,2013-04-26 07:21:00,
2013-04-26 03:26:00,30.6,23.9,29.71,SW,214,0.0,0.0,76,0.00,,,0.00,Weather View 32 v70,2013-04-26 07:26:00,
2013-04-26 03:31:00,30.4,23.7,29.71,SW,214,0.0,0.0,76,0.00,,,0.00,Weather View 32 v70,2013-04-26 07:31:00,
2013-04-26 03:36:00,30.4,23.7,29.71,SW,214,0.0,0.0,76,0.00,,,0.00,Weather View 32 v70,2013-04-26 07:36:00,
2013-04-26 03:41:00,30.4,24.0,29.71,SW,214,0.0,0.0,77,0.00,,,0.00,Weather View 32 v70,2013-04-26 07:41:00,
2013-04-26 03:46:00,30.4,24.0,29.71,SW,214,0.0,0.0,77,0.00,,,0.00,Weather View 32 v70,2013-04-26 07:46:00,
2013-04-26 03:51:00,30.4,24.0,29.71,SW,214,0.0,0.0,77,0.00,,,0.00,Weather View 32 v70,2013-04-26 07:51:00,
2013-04-26 03:56:00,30.2,24.2,29.71,SW,214,0.0,0.0,78,0.00,,,0.00,Weather View 32 v70,2013-04-26 07:56:00,
2013-04-26 04:01:00,30.2,24.2,29.71,SW,214,0.0,0.0,78,0.00,,,0.00,Weather View 32 v70,2013-04-26 08:01:00,
2013-04-26 04:06:00,30.2,24.2,29.71,SW,214,0.0,0.0,78,0.00,,,0.00,Weather View 32 v70,2013-04-26 08:06:00,
2013-04-26 04:11:00,30.2,24.5,29.71,SW,214,0.0,0.0,79,0.00,,,0.00,Weather View 32 v70,2013-04-26 08:11:00,
2013-04-26 04:16:00,30.0,24.0,29.71,SW,214,0.0,0.0,78,0.00,,,0.00,Weather View 32 v70,2013-04-26 08:16:00,
2013-04-26 04:21:00,29.8,24.1,29.71,SW,214,0.0,0.0,79,0.00,,,0.00,Weather View 32 v70,2013-04-26 08:21:00,
2013-04-26 04:26:00,30.0,24.3,29.71,SW,214,0.0,0.0,79,0.00,,,0.00,Weather View 32 v70,2013-04-26 08:26:00,
2013-04-26 04:31:00,29.8,24.1,29.71,SW,214,0.0,0.0,79,0.00,,,0.00,Weather View 32 v70,2013-04-26 08:31:00,
2013-04-26 04:36:00,29.7,23.9,29.71,SW,214,0.0,0.0,79,0.00,,,0.00,Weather View 32 v70,2013-04-26 08:36:00,
2013-04-26 04:41:00,29.7,24.2,29.71,SW,214,0.0,0.0,80,0.00,,,0.00,Weather View 32 v70,2013-04-26 08:41:00,
2013-04-26 04:46:00,29.7,24.2,29.71,SW,214,0.0,0.0,80,0.00,,,0.00,Weather View 32 v70,2013-04-26 08:46:00,
2013-04-26 04:51:00,29.7,24.5,29.71,SW,214,0.0,0.0,81,0.00,,,0.00,Weather View 32 v70,2013-04-26 08:51:00,
2013-04-26 04:56:00,29.7,24.8,29.71,SW,214,0.0,0.0,82,0.00,,,0.00,Weather View 32 v70,2013-04-26 08:56:00,
2013-04-26 05:01:00,29.7,24.8,29.71,SW,214,0.0,0.0,82,0.00,,,0.00,Weather View 32 v70,2013-04-26 09:01:00,
2013-04-26 05:06:00,29.7,24.8,29.71,SW,214,0.0,0.0,82,0.00,,,0.00,Weather View 32 v70,2013-04-26 09:06:00,
2013-04-26 05:11:00,29.7,24.8,29.71,SW,214,0.0,0.0,82,0.00,,,0.00,Weather View 32 v70,2013-04-26 09:11:00,
2013-04-26 05:16:00,30.0,25.2,29.71,SW,214,0.0,0.0,82,0.00,,,0.00,Weather View 32 v70,2013-04-26 09:16:00,
2013-04-26 05:21:00,30.2,25.4,29.71,SW,214,0.0,0.0,82,0.00,,,0.00,Weather View 32 v70,2013-04-26 09:21:00,
2013-04-26 05:26:00,30.4,25.5,29.71,SW,214,0.0,0.0,82,0.00,,,0.00,Weather View 32 v70,2013-04-26 09:26:00,
2013-04-26 05:31:00,30.0,24.6,29.71,SW,214,0.0,0.0,80,0.00,,,0.00,Weather View 32 v70,2013-04-26 09:31:00,
2013-04-26 05:36:00,29.7,23.9,29.71,SW,214,0.0,0.0,79,0.00,,,0.00,Weather View 32 v70,2013-04-26 09:36:00,
2013-04-26 05:41:00,29.5,24.1,29.71,SW,214,0.0,0.0,80,0.00,,,0.00,Weather View 32 v70,2013-04-26 09:41:00,
2013-04-26 05:46:00,29.7,24.2,29.71,SW,214,0.0,0.0,80,0.00,,,0.00,Weather View 32 v70,2013-04-26 09:46:00,
2013-04-26 05:51:00,30.0,24.9,29.71,SW,214,0.0,0.0,81,0.00,,,0.00,Weather View 32 v70,2013-04-26 09:51:00,
2013-04-26 05:56:00,29.5,24.1,29.71,SW,214,0.0,0.0,80,0.00,,,0.00,Weather View 32 v70,2013-04-26 09:56:00,
2013-04-26 06:01:00,29.3,23.9,29.71,SW,214,0.0,0.0,80,0.00,,,0.00,Weather View 32 v70,2013-04-26 10:01:00,
2013-04-26 06:06:00,29.3,24.2,29.71,SW,214,0.0,0.0,81,0.00,,,0.00,Weather View 32 v70,2013-04-26 10:06:00,
2013-04-26 06:11:00,29.3,24.2,29.71,SW,214,0.0,0.0,81,0.00,,,0.00,Weather View 32 v70,2013-04-26 10:11:00,
2013-04-26 06:16:00,29.3,24.5,29.71,SW,214,0.0,0.0,82,0.00,,,0.00,Weather View 32 v70,2013-04-26 10:16:00,
2013-04-26 06:21:00,29.7,24.8,29.71,SW,214,0.0,0.0,82,0.00,,,0.00,Weather View 32 v70,2013-04-26 10:21:00,
2013-04-26 06:26:00,29.7,24.5,29.71,SW,214,0.0,0.0,81,0.00,,,0.00,Weather View 32 v70,2013-04-26 10:26:00,
2013-04-26 06:31:00,29.7,24.5,29.71,SW,214,0.0,0.0,81,0.00,,,0.00,Weather View 32 v70,2013-04-26 10:31:00,
2013-04-26 06:36:00,30.2,25.4,29.71,SW,214,0.0,0.0,82,0.00,,,0.00,Weather View 32 v70,2013-04-26 10:36:00,
2013-04-26 06:41:00,30.7,25.9,29.71,SW,214,0.0,4.0,82,0.00,,,0.00,Weather View 32 v70,2013-04-26 10:41:00,
2013-04-26 06:46:00,31.3,26.7,29.71,SW,214,0.0,4.0,83,0.00,,,0.00,Weather View 32 v70,2013-04-26 10:46:00,
2013-04-26 06:51:00,31.5,26.6,29.71,SW,214,0.0,4.0,82,0.00,,,0.00,Weather View 32 v70,2013-04-26 10:51:00,
2013-04-26 06:56:00,31.6,26.5,29.71,SW,214,2.0,4.0,81,0.00,,,0.00,Weather View 32 v70,2013-04-26 10:56:00,
2013-04-26 07:01:00,31.6,26.2,29.71,SW,214,0.0,4.0,80,0.00,,,0.00,Weather View 32 v70,2013-04-26 11:01:00,
2013-04-26 07:06:00,31.6,25.9,29.71,SW,214,0.0,4.0,79,0.00,,,0.00,Weather View 32 v70,2013-04-26 11:06:00,
2013-04-26 07:11:00,31.6,25.6,29.71,SW,214,0.0,4.0,78,0.00,,,0.00,Weather View 32 v70,2013-04-26 11:11:00,
2013-04-26 07:16:00,31.6,25.6,29.71,SW,214,3.0,4.0,78,0.00,,,0.00,Weather View 32 v70,2013-04-26 11:16:00,
2013-04-26 07:21:00,31.6,25.6,29.71,SW,214,3.0,4.0,78,0.00,,,0.00,Weather View 32 v70,2013-04-26 11:21:00,
2013-04-26 07:26:00,32.0,26.2,29.71,SW,214,3.0,4.0,79,0.00,,,0.00,Weather View 32 v70,2013-04-26 11:26:00,
2013-04-26 07:31:00,32.4,26.6,29.71,SW,214,2.0,4.0,79,0.00,,,0.00,Weather View 32 v70,2013-04-26 11:31:00,
2013-04-26 07:36:00,32.7,26.3,29.71,SW,214,3.0,4.0,77,0.00,,,0.00,Weather View 32 v70,2013-04-26 11:36:00,
2013-04-26 07:41:00,33.1,26.0,29.71,SW,214,2.0,3.0,75,0.00,,,0.00,Weather View 32 v70,2013-04-26 11:41:00,
2013-04-26 07:46:00,33.6,25.9,29.71,SW,214,0.0,3.0,73,0.00,,,0.00,Weather View 32 v70,2013-04-26 11:46:00,
2013-04-26 07:51:00,34.2,25.7,29.74,SW,214,3.0,3.0,71,0.00,,,0.00,Weather View 32 v70,2013-04-26 11:51:00,
2013-04-26 07:56:00,34.5,25.0,29.74,SW,214,2.0,4.0,68,0.00,,,0.00,Weather View 32 v70,2013-04-26 11:56:00,
2013-04-26 08:01:00,34.9,24.7,29.74,SW,214,2.0,4.0,66,0.00,,,0.00,Weather View 32 v70,2013-04-26 12:01:00,
2013-04-26 08:06:00,35.4,24.4,29.74,SW,214,2.0,4.0,64,0.00,,,0.00,Weather View 32 v70,2013-04-26 12:06:00,
2013-04-26 08:11:00,35.8,24.0,29.74,SW,214,2.0,4.0,62,0.00,,,0.00,Weather View 32 v70,2013-04-26 12:11:00,
2013-04-26 08:16:00,36.3,23.4,29.74,SW,214,3.0,4.0,59,0.00,,,0.00,Weather View 32 v70,2013-04-26 12:16:00,
2013-04-26 08:21:00,36.7,23.3,29.74,SW,214,0.0,4.0,58,0.00,,,0.00,Weather View 32 v70,2013-04-26 12:21:00,
2013-04-26 08:26:00,37.0,23.2,29.74,SW,214,0.0,4.0,57,0.00,,,0.00,Weather View 32 v70,2013-04-26 12:26:00,
2013-04-26 08:31:00,37.6,23.3,29.74,SW,214,2.0,4.0,56,0.00,,,0.00,Weather View 32 v70,2013-04-26 12:31:00,
2013-04-26 08:36:00,38.1,23.8,29.74,SW,214,2.0,4.0,56,0.00,,,0.00,Weather View 32 v70,2013-04-26 12:36:00,
2013-04-26 08:41:00,38.7,23.0,29.74,SW,214,3.0,4.0,53,0.00,,,0.00,Weather View 32 v70,2013-04-26 12:41:00,
2013-04-26 08:46:00,39.2,23.0,29.74,SW,214,3.0,4.0,52,0.00,,,0.00,Weather View 32 v70,2013-04-26 12:46:00,
2013-04-26 08:51:00,39.7,23.5,29.74,SW,214,3.0,4.0,52,0.00,,,0.00,Weather View 32 v70,2013-04-26 12:51:00,
2013-04-26 08:56:00,40.5,23.3,29.74,SSW,207,3.0,4.0,50,0.00,,,0.00,Weather View 32 v70,2013-04-26 12:56:00,
2013-04-26 09:01:00,41.0,22.3,29.74,SSW,213,3.0,4.0,47,0.00,,,0.00,Weather View 32 v70,2013-04-26 13:01:00,
2013-04-26 09:06:00,41.7,21.9,29.74,South,191,2.0,5.0,45,0.00,,,0.00,Weather View 32 v70,2013-04-26 13:06:00,
2013-04-26 09:11:00,42.3,21.9,29.74,SSW,202,4.0,5.0,44,0.00,,,0.00,Weather View 32 v70,2013-04-26 13:11:00,
2013-04-26 09:16:00,42.8,20.7,29.74,SSW,198,3.0,5.0,41,0.00,,,0.00,Weather View 32 v70,2013-04-26 13:16:00,
2013-04-26 09:21:00,43.3,20.6,29.74,SSW,207,6.0,6.0,40,0.00,,,0.00,Weather View 32 v70,2013-04-26 13:21:00,
2013-04-26 09:26:00,44.1,21.2,29.74,South,186,3.0,6.0,40,0.00,,,0.00,Weather View 32 v70,2013-04-26 13:26:00,
2013-04-26 09:31:00,44.4,21.0,29.74,SW,225,4.0,6.0,39,0.00,,,0.00,Weather View 32 v70,2013-04-26 13:31:00,
2013-04-26 09:36:00,45.1,21.6,29.74,SSW,196,3.0,6.0,39,0.00,,,0.00,Weather View 32 v70,2013-04-26 13:36:00,
2013-04-26 09:41:00,45.7,21.5,29.74,South,187,3.0,6.0,38,0.00,,,0.00,Weather View 32 v70,2013-04-26 13:41:00,
2013-04-26 09:46:00,46.0,22.4,29.74,SSW,212,3.0,6.0,39,0.00,,,0.00,Weather View 32 v70,2013-04-26 13:46:00,
2013-04-26 09:51:00,46.4,22.1,29.74,South,191,4.0,6.0,38,0.00,,,0.00,Weather View 32 v70,2013-04-26 13:51:00,
2013-04-26 09:56:00,46.8,22.5,29.74,SSW,200,2.0,6.0,38,0.00,,,0.00,Weather View 32 v70,2013-04-26 13:56:00,
2013-04-26 10:01:00,47.3,22.3,29.74,South,189,4.0,6.0,37,0.00,,,0.00,Weather View 32 v70,2013-04-26 14:01:00,
2013-04-26 10:06:00,47.8,22.8,29.74,SSW,194,5.0,6.0,37,0.00,,,0.00,Weather View 32 v70,2013-04-26 14:06:00,
2013-04-26 10:11:00,48.0,22.3,29.74,SW,232,3.0,8.0,36,0.00,,,0.00,Weather View 32 v70,2013-04-26 14:11:00,
2013-04-26 10:16:00,48.6,22.1,29.74,SSW,206,5.0,8.0,35,0.00,,,0.00,Weather View 32 v70,2013-04-26 14:16:00,
2013-04-26 10:21:00,48.6,20.0,29.74,SSW,213,5.0,8.0,32,0.00,,,0.00,Weather View 32 v70,2013-04-26 14:21:00,
2013-04-26 10:26:00,49.1,21.2,29.74,SSW,194,4.0,8.0,33,0.00,,,0.00,Weather View 32 v70,2013-04-26 14:26:00,
2013-04-26 10:31:00,49.5,20.8,29.74,SW,220,5.0,8.0,32,0.00,,,0.00,Weather View 32 v70,2013-04-26 14:31:00,
2013-04-26 10:36:00,49.6,18.6,29.74,South,187,5.0,8.0,29,0.00,,,0.00,Weather View 32 v70,2013-04-26 14:36:00,
2013-04-26 10:41:00,50.2,19.9,29.74,SSW,203,5.0,8.0,30,0.00,,,0.00,Weather View 32 v70,2013-04-26 14:41:00,
2013-04-26 10:46:00,50.5,19.4,29.74,South,190,3.0,8.0,29,0.00,,,0.00,Weather View 32 v70,2013-04-26 14:46:00,
2013-04-26 10:51:00,50.9,19.7,29.74,SSW,204,5.0,8.0,29,0.00,,,0.00,Weather View 32 v70,2013-04-26 14:51:00,
2013-04-26 10:56:00,51.1,19.1,29.74,SSW,203,6.0,8.0,28,0.00,,,0.00,Weather View 32 v70,2013-04-26 14:56:00,
2013-04-26 11:01:00,51.3,19.2,29.74,South,177,6.0,10.0,28,0.00,,,0.00,Weather View 32 v70,2013-04-26 15:01:00,
2013-04-26 11:06:00,51.4,20.2,29.74,SSW,202,6.0,10.0,29,0.00,,,0.00,Weather View 32 v70,2013-04-26 15:06:00,
2013-04-26 11:11:00,51.4,19.4,29.74,SSW,194,6.0,10.0,28,0.00,,,0.00,Weather View 32 v70,2013-04-26 15:11:00,
2013-04-26 11:16:00,51.8,18.8,29.74,SW,223,5.0,10.0,27,0.00,,,0.00,Weather View 32 v70,2013-04-26 15:16:00,
2013-04-26 11:21:00,51.8,18.8,29.74,SSW,196,6.0,10.0,27,0.00,,,0.00,Weather View 32 v70,2013-04-26 15:21:00,
2013-04-26 11:26:00,52.2,20.0,29.74,South,182,5.0,11.0,28,0.00,,,0.00,Weather View 32 v70,2013-04-26 15:26:00,
2013-04-26 11:31:00,53.2,20.9,29.74,South,182,3.0,11.0,28,0.00,,,0.00,Weather View 32 v70,2013-04-26 15:31:00,
2013-04-26 11:36:00,53.4,20.2,29.74,SSW,196,3.0,11.0,27,0.00,,,0.00,Weather View 32 v70,2013-04-26 15:36:00,
2013-04-26 11:41:00,53.8,19.6,29.74,SSW,193,3.0,11.0,26,0.00,,,0.00,Weather View 32 v70,2013-04-26 15:41:00,
2013-04-26 11:46:00,54.0,20.7,29.74,SW,218,6.0,11.0,27,0.00,,,0.00,Weather View 32 v70,2013-04-26 15:46:00,
2013-04-26 11:51:00,54.1,20.8,29.74,SSW,194,3.0,11.0,27,0.00,,,0.00,Weather View 32 v70,2013-04-26 15:51:00,
2013-04-26 11:56:00,54.5,21.1,29.74,South,175,4.0,11.0,27,0.00,,,0.00,Weather View 32 v70,2013-04-26 15:56:00,
2013-04-26 12:01:00,55.0,21.6,29.74,SSW,194,0.0,11.0,27,0.00,,,0.00,Weather View 32 v70,2013-04-26 16:01:00,
2013-04-26 12:06:00,55.4,21.0,29.74,SSW,193,6.0,11.0,26,0.00,,,0.00,Weather View 32 v70,2013-04-26 16:06:00,
2013-04-26 12:11:00,54.9,21.4,29.74,SSW,195,6.0,11.0,27,0.00,,,0.00,Weather View 32 v70,2013-04-26 16:11:00,
2013-04-26 12:16:00,54.9,20.6,29.74,SSW,196,6.0,11.0,26,0.00,,,0.00,Weather View 32 v70,2013-04-26 16:16:00,
2013-04-26 12:21:00,55.4,21.0,29.74,SSW,195,6.0,11.0,26,0.00,,,0.00,Weather View 32 v70,2013-04-26 16:21:00,
2013-04-26 12:26:00,56.1,22.5,29.74,SW,215,6.0,11.0,27,0.00,,,0.00,Weather View 32 v70,2013-04-26 16:26:00,
2013-04-26 12:31:00,55.9,20.6,29.74,SSE,151,5.0,11.0,25,0.00,,,0.00,Weather View 32 v70,2013-04-26 16:31:00,
2013-04-26 12:36:00,55.9,21.5,29.74,SSW,212,5.0,11.0,26,0.00,,,0.00,Weather View 32 v70,2013-04-26 16:36:00,
2013-04-26 12:41:00,56.3,20.9,29.74,South,191,5.0,11.0,25,0.00,,,0.00,Weather View 32 v70,2013-04-26 16:41:00,
2013-04-26 12:46:00,56.7,21.2,29.74,South,189,3.0,11.0,25,0.00,,,0.00,Weather View 32 v70,2013-04-26 16:46:00,
2013-04-26 12:51:00,55.9,20.6,29.71,South,186,4.0,12.0,25,0.00,,,0.00,Weather View 32 v70,2013-04-26 16:51:00,
2013-04-26 12:56:00,55.8,20.4,29.71,SSW,202,7.0,12.0,25,0.00,,,0.00,Weather View 32 v70,2013-04-26 16:56:00,
2013-04-26 13:01:00,56.3,21.8,29.71,SSW,203,4.0,12.0,26,0.00,,,0.00,Weather View 32 v70,2013-04-26 17:01:00,
2013-04-26 13:06:00,57.2,21.6,29.71,SW,214,5.0,12.0,25,0.00,,,0.00,Weather View 32 v70,2013-04-26 17:06:00,
2013-04-26 13:11:00,56.8,22.2,29.71,South,190,3.0,12.0,26,0.00,,,0.00,Weather View 32 v70,2013-04-26 17:11:00,
2013-04-26 13:16:00,57.2,21.6,29.71,South,185,4.0,12.0,25,0.00,,,0.00,Weather View 32 v70,2013-04-26 17:16:00,
2013-04-26 13:21:00,57.7,22.1,29.71,South,185,6.0,12.0,25,0.00,,,0.00,Weather View 32 v70,2013-04-26 17:21:00,
2013-04-26 13:26:00,57.6,21.9,29.71,WSW,244,4.0,12.0,25,0.00,,,0.00,Weather View 32 v70,2013-04-26 17:26:00,
2013-04-26 13:31:00,58.3,22.5,29.71,SSW,208,6.0,12.0,25,0.00,,,0.00,Weather View 32 v70,2013-04-26 17:31:00,
2013-04-26 13:36:00,57.7,22.1,29.71,SSW,206,5.0,12.0,25,0.00,,,0.00,Weather View 32 v70,2013-04-26 17:36:00,
2013-04-26 13:41:00,56.8,21.3,29.71,SW,218,6.0,12.0,25,0.00,,,0.00,Weather View 32 v70,2013-04-26 17:41:00,
2013-04-26 13:46:00,57.6,21.9,29.71,SSW,194,4.0,12.0,25,0.00,,,0.00,Weather View 32 v70,2013-04-26 17:46:00,
2013-04-26 13:51:00,57.9,22.2,29.71,South,187,6.0,10.0,25,0.00,,,0.00,Weather View 32 v70,2013-04-26 17:51:00,
2013-04-26 13:56:00,57.2,21.6,29.71,SSW,201,5.0,9.0,25,0.00,,,0.00,Weather View 32 v70,2013-04-26 17:56:00,
2013-04-26 14:01:00,58.3,22.5,29.71,South,180,3.0,8.0,25,0.00,,,0.00,Weather View 32 v70,2013-04-26 18:01:00,
2013-04-26 14:06:00,57.7,22.1,29.68,SSE,167,5.0,11.0,25,0.00,,,0.00,Weather View 32 v70,2013-04-26 18:06:00,
2013-04-26 14:11:00,57.2,21.6,29.68,South,189,6.0,11.0,25,0.00,,,0.00,Weather View 32 v70,2013-04-26 18:11:00,
2013-04-26 14:16:00,58.3,22.5,29.68,South,181,8.0,11.0,25,0.00,,,0.00,Weather View 32 v70,2013-04-26 18:16:00,
2013-04-26 14:21:00,58.8,23.0,29.68,South,187,4.0,11.0,25,0.00,,,0.00,Weather View 32 v70,2013-04-26 18:21:00,
2013-04-26 14:26:00,59.0,23.2,29.68,South,182,6.0,11.0,25,0.00,,,0.00,Weather View 32 v70,2013-04-26 18:26:00,
2013-04-26 14:31:00,59.2,23.3,29.68,SSW,202,3.0,11.0,25,0.00,,,0.00,Weather View 32 v70,2013-04-26 18:31:00,
2013-04-26 14:36:00,59.0,22.2,29.68,South,181,4.0,11.0,24,0.00,,,0.00,Weather View 32 v70,2013-04-26 18:36:00,
2013-04-26 14:41:00,58.8,23.0,29.68,SSW,193,4.0,11.0,25,0.00,,,0.00,Weather View 32 v70,2013-04-26 18:41:00,
2013-04-26 14:46:00,59.2,23.3,29.68,ESE,119,3.0,11.0,25,0.00,,,0.00,Weather View 32 v70,2013-04-26 18:46:00,
2013-04-26 14:51:00,59.4,23.5,29.68,SSW,208,6.0,11.0,25,0.00,,,0.00,Weather View 32 v70,2013-04-26 18:51:00,
2013-04-26 14:56:00,58.8,23.0,29.68,SE,145,3.0,11.0,25,0.00,,,0.00,Weather View 32 v70,2013-04-26 18:56:00,
2013-04-26 15:01:00,58.8,23.0,29.68,South,181,3.0,11.0,25,0.00,,,0.00,Weather View 32 v70,2013-04-26 19:01:00,
2013-04-26 15:06:00,59.2,23.3,29.68,SSW,202,8.0,11.0,25,0.00,,,0.00,Weather View 32 v70,2013-04-26 19:06:00,
2013-04-26 15:11:00,58.6,23.8,29.68,South,183,8.0,11.0,26,0.00,,,0.00,Weather View 32 v70,2013-04-26 19:11:00,
2013-04-26 15:16:00,57.9,22.2,29.68,South,191,8.0,10.0,25,0.00,,,0.00,Weather View 32 v70,2013-04-26 19:16:00,
2013-04-26 15:21:00,58.3,22.5,29.68,SSW,202,5.0,10.0,25,0.00,,,0.00,Weather View 32 v70,2013-04-26 19:21:00,
2013-04-26 15:26:00,58.6,22.8,29.68,South,187,5.0,10.0,25,0.00,,,0.00,Weather View 32 v70,2013-04-26 19:26:00,
2013-04-26 15:31:00,58.6,23.8,29.68,SSW,193,8.0,10.0,26,0.00,,,0.00,Weather View 32 v70,2013-04-26 19:31:00,
2013-04-26 15:36:00,58.1,22.4,29.68,South,190,6.0,10.0,25,0.00,,,0.00,Weather View 32 v70,2013-04-26 19:36:00,
2013-04-26 15:41:00,58.3,22.5,29.68,SSE,154,5.0,10.0,25,0.00,,,0.00,Weather View 32 v70,2013-04-26 19:41:00,
2013-04-26 15:46:00,58.5,22.7,29.68,South,189,6.0,10.0,25,0.00,,,0.00,Weather View 32 v70,2013-04-26 19:46:00,
2013-04-26 15:51:00,58.5,22.7,29.65,South,185,4.0,10.0,25,0.00,,,0.00,Weather View 32 v70,2013-04-26 19:51:00,
2013-04-26 15:56:00,58.6,22.8,29.65,South,186,4.0,10.0,25,0.00,,,0.00,Weather View 32 v70,2013-04-26 19:56:00,
2013-04-26 16:01:00,59.0,24.1,29.65,South,187,4.0,10.0,26,0.00,,,0.00,Weather View 32 v70,2013-04-26 20:01:00,
2013-04-26 16:06:00,58.8,23.0,29.65,SSW,192,6.0,10.0,25,0.00,,,0.00,Weather View 32 v70,2013-04-26 20:06:00,
2013-04-26 16:11:00,59.4,24.4,29.65,SSE,159,4.0,10.0,26,0.00,,,0.00,Weather View 32 v70,2013-04-26 20:11:00,
2013-04-26 16:16:00,59.0,23.2,29.65,SSW,197,5.0,10.0,25,0.00,,,0.00,Weather View 32 v70,2013-04-26 20:16:00,
2013-04-26 16:21:00,59.0,23.2,29.65,South,187,6.0,11.0,25,0.00,,,0.00,Weather View 32 v70,2013-04-26 20:21:00,
2013-04-26 16:26:00,59.0,23.2,29.65,SSW,193,6.0,11.0,25,0.00,,,0.00,Weather View 32 v70,2013-04-26 20:26:00,
2013-04-26 16:31:00,59.2,23.3,29.65,South,184,5.0,11.0,25,0.00,,,0.00,Weather View 32 v70,2013-04-26 20:31:00,
2013-04-26 16:36:00,59.4,24.4,29.65,SSW,197,4.0,11.0,26,0.00,,,0.00,Weather View 32 v70,2013-04-26 20:36:00,
2013-04-26 16:41:00,59.0,23.2,29.65,SSW,194,5.0,11.0,25,0.00,,,0.00,Weather View 32 v70,2013-04-26 20:41:00,
2013-04-26 16:46:00,59.0,24.1,29.65,South,189,3.0,11.0,26,0.00,,,0.00,Weather View 32 v70,2013-04-26 20:46:00,
2013-04-26 16:51:00,59.0,23.2,29.65,South,185,6.0,11.0,25,0.00,,,0.00,Weather View 32 v70,2013-04-26 20:51:00,
2013-04-26 16:56:00,58.6,23.8,29.65,SSW,202,5.0,11.0,26,0.00,,,0.00,Weather View 32 v70,2013-04-26 20:56:00,
2013-04-26 17:01:00,58.8,23.9,29.65,SSW,207,4.0,11.0,26,0.00,,,0.00,Weather View 32 v70,2013-04-26 21:01:00,
2013-04-26 17:06:00,59.2,24.2,29.65,South,190,6.0,11.0,26,0.00,,,0.00,Weather View 32 v70,2013-04-26 21:06:00,
2013-04-26 17:11:00,58.8,23.0,29.65,SW,224,5.0,11.0,25,0.00,,,0.00,Weather View 32 v70,2013-04-26 21:11:00,
2013-04-26 17:16:00,58.8,23.9,29.65,South,186,8.0,11.0,26,0.00,,,0.00,Weather View 32 v70,2013-04-26 21:16:00,
2013-04-26 17:21:00,58.8,23.9,29.65,SSW,198,5.0,10.0,26,0.00,,,0.00,Weather View 32 v70,2013-04-26 21:21:00,
2013-04-26 17:26:00,58.8,23.0,29.65,SW,220,3.0,10.0,25,0.00,,,0.00,Weather View 32 v70,2013-04-26 21:26:00,
2013-04-26 17:31:00,59.0,24.1,29.65,South,189,6.0,10.0,26,0.00,,,0.00,Weather View 32 v70,2013-04-26 21:31:00,
2013-04-26 17:36:00,59.2,24.2,29.62,SW,229,6.0,10.0,26,0.00,,,0.00,Weather View 32 v70,2013-04-26 21:36:00,
2013-04-26 17:41:00,58.6,22.8,29.62,SSW,207,6.0,10.0,25,0.00,,,0.00,Weather View 32 v70,2013-04-26 21:41:00,
2013-04-26 17:46:00,58.3,23.5,29.62,SSW,211,6.0,10.0,26,0.00,,,0.00,Weather View 32 v70,2013-04-26 21:46:00,
2013-04-26 17:51:00,58.5,22.7,29.65,South,191,8.0,10.0,25,0.00,,,0.00,Weather View 32 v70,2013-04-26 21:51:00,
2013-04-26 17:56:00,58.6,22.8,29.65,SSW,200,5.0,10.0,25,0.00,,,0.00,Weather View 32 v70,2013-04-26 21:56:00,
2013-04-26 18:01:00,58.8,23.9,29.65,SSW,205,6.0,10.0,26,0.00,,,0.00,Weather View 32 v70,2013-04-26 22:01:00,
2013-04-26 18:06:00,58.3,23.5,29.65,WSW,250,8.0,10.0,26,0.00,,,0.00,Weather View 32 v70,2013-04-26 22:06:00,
2013-04-26 18:11:00,58.1,23.3,29.65,SW,214,8.0,10.0,26,0.00,,,0.00,Weather View 32 v70,2013-04-26 22:11:00,
2013-04-26 18:16:00,57.9,23.2,29.65,SSW,204,8.0,10.0,26,0.00,,,0.00,Weather View 32 v70,2013-04-26 22:16:00,
2013-04-26 18:21:00,58.3,22.5,29.65,South,187,5.0,9.0,25,0.00,,,0.00,Weather View 32 v70,2013-04-26 22:21:00,
2013-04-26 18:26:00,58.3,23.5,29.65,SSW,195,5.0,11.0,26,0.00,,,0.00,Weather View 32 v70,2013-04-26 22:26:00,
2013-04-26 18:31:00,58.3,23.5,29.65,South,184,4.0,11.0,26,0.00,,,0.00,Weather View 32 v70,2013-04-26 22:31:00,
2013-04-26 18:36:00,58.1,23.3,29.65,WSW,244,6.0,11.0,26,0.00,,,0.00,Weather View 32 v70,2013-04-26 22:36:00,
2013-04-26 18:41:00,57.7,23.0,29.65,SSW,208,6.0,11.0,26,0.00,,,0.00,Weather View 32 v70,2013-04-26 22:41:00,
2013-04-26 18:46:00,57.7,23.0,29.65,SSW,195,8.0,11.0,26,0.00,,,0.00,Weather View 32 v70,2013-04-26 22:46:00,
2013-04-26 18:51:00,58.1,23.3,29.65,South,183,4.0,11.0,26,0.00,,,0.00,Weather View 32 v70,2013-04-26 22:51:00,
2013-04-26 18:56:00,58.1,22.4,29.65,South,190,6.0,11.0,25,0.00,,,0.00,Weather View 32 v70,2013-04-26 22:56:00,
2013-04-26 19:01:00,58.1,23.3,29.65,SSW,194,6.0,11.0,26,0.00,,,0.00,Weather View 32 v70,2013-04-26 23:01:00,
2013-04-26 19:06:00,57.9,23.2,29.65,SSW,201,9.0,11.0,26,0.00,,,0.00,Weather View 32 v70,2013-04-26 23:06:00,
2013-04-26 19:11:00,57.7,23.0,29.65,South,190,5.0,11.0,26,0.00,,,0.00,Weather View 32 v70,2013-04-26 23:11:00,
2013-04-26 19:16:00,57.6,22.9,29.65,SW,216,6.0,11.0,26,0.00,,,0.00,Weather View 32 v70,2013-04-26 23:16:00,
2013-04-26 19:21:00,57.2,22.6,29.65,SW,216,6.0,11.0,26,0.00,,,0.00,Weather View 32 v70,2013-04-26 23:21:00,
2013-04-26 19:26:00,57.0,23.3,29.65,South,186,6.0,11.0,27,0.00,,,0.00,Weather View 32 v70,2013-04-26 23:26:00,
2013-04-26 19:31:00,56.8,22.2,29.65,South,191,6.0,11.0,26,0.00,,,0.00,Weather View 32 v70,2013-04-26 23:31:00,
2013-04-26 19:36:00,56.7,23.0,29.62,SSW,197,3.0,11.0,27,0.00,,,0.00,Weather View 32 v70,2013-04-26 23:36:00,
2013-04-26 19:41:00,56.5,22.8,29.62,SSW,200,4.0,11.0,27,0.00,,,0.00,Weather View 32 v70,2013-04-26 23:41:00,
2013-04-26 19:46:00,56.3,22.7,29.62,South,189,4.0,11.0,27,0.00,,,0.00,Weather View 32 v70,2013-04-26 23:46:00,
2013-04-26 19:51:00,56.3,21.8,29.62,South,188,4.0,11.0,26,0.00,,,0.00,Weather View 32 v70,2013-04-26 23:51:00,
2013-04-26 20:05:00,55.8,22.2,29.62,SSE,168,3.0,11.0,27,0.00,,,0.00,Weather View 32 v70,2013-04-27 00:05:00,
2013-04-26 20:10:00,55.6,22.9,29.62,SSW,194,3.0,11.0,28,0.00,,,0.00,Weather View 32 v70,2013-04-27 00:10:00,
2013-04-26 20:15:00,55.4,22.8,29.62,SSW,196,4.0,8.0,28,0.00,,,0.00,Weather View 32 v70,2013-04-27 00:15:00,
2013-04-26 20:20:00,55.2,23.5,29.62,SSW,193,3.0,8.0,29,0.00,,,0.00,Weather View 32 v70,2013-04-27 00:20:00,
2013-04-26 20:25:00,55.0,23.3,29.62,SSW,195,4.0,8.0,29,0.00,,,0.00,Weather View 32 v70,2013-04-27 00:25:00,
2013-04-26 20:30:00,54.7,23.0,29.62,SSW,203,3.0,8.0,29,0.00,,,0.00,Weather View 32 v70,2013-04-27 00:30:00,
2013-04-26 20:35:00,54.5,22.8,29.62,SSW,208,4.0,6.0,29,0.00,,,0.00,Weather View 32 v70,2013-04-27 00:35:00,
2013-04-26 20:40:00,54.1,23.3,29.62,South,189,3.0,6.0,30,0.00,,,0.00,Weather View 32 v70,2013-04-27 00:40:00,
2013-04-26 20:45:00,54.0,23.2,29.62,South,191,4.0,6.0,30,0.00,,,0.00,Weather View 32 v70,2013-04-27 00:45:00,
2013-04-26 20:50:00,53.8,23.8,29.62,SSW,196,0.0,6.0,31,0.00,,,0.00,Weather View 32 v70,2013-04-27 00:50:00,
2013-04-26 20:55:00,53.6,24.4,29.62,South,191,3.0,6.0,32,0.00,,,0.00,Weather View 32 v70,2013-04-27 00:55:00,
2013-04-26 21:00:00,53.4,24.2,29.62,South,177,5.0,6.0,32,0.00,,,0.00,Weather View 32 v70,2013-04-27 01:00:00,
2013-04-26 21:05:00,53.2,24.1,29.65,South,187,3.0,6.0,32,0.00,,,0.00,Weather View 32 v70,2013-04-27 01:05:00,
2013-04-26 21:10:00,53.2,24.1,29.65,South,191,4.0,6.0,32,0.00,,,0.00,Weather View 32 v70,2013-04-27 01:10:00,
2013-04-26 21:15:00,53.2,24.1,29.65,SSW,193,4.0,6.0,32,0.00,,,0.00,Weather View 32 v70,2013-04-27 01:15:00,
2013-04-26 21:20:00,53.1,23.9,29.65,SSW,205,3.0,6.0,32,0.00,,,0.00,Weather View 32 v70,2013-04-27 01:20:00,
2013-04-26 21:25:00,53.1,23.9,29.65,SSW,193,4.0,5.0,32,0.00,,,0.00,Weather View 32 v70,2013-04-27 01:25:00,
2013-04-26 21:30:00,52.9,23.0,29.65,SSW,195,3.0,6.0,31,0.00,,,0.00,Weather View 32 v70,2013-04-27 01:30:00,
2013-04-26 21:35:00,52.7,24.3,29.65,South,189,3.0,6.0,33,0.00,,,0.00,Weather View 32 v70,2013-04-27 01:35:00,
2013-04-26 21:40:00,52.5,24.2,29.65,South,191,3.0,6.0,33,0.00,,,0.00,Weather View 32 v70,2013-04-27 01:40:00,
2013-04-26 21:45:00,52.3,24.0,29.65,South,189,3.0,6.0,33,0.00,,,0.00,Weather View 32 v70,2013-04-27 01:45:00,
2013-04-26 21:50:00,52.3,24.0,29.65,SSW,195,4.0,6.0,33,0.00,,,0.00,Weather View 32 v70,2013-04-27 01:50:00,
2013-04-26 21:55:00,52.2,24.6,29.65,SSW,195,4.0,6.0,34,0.00,,,0.00,Weather View 32 v70,2013-04-27 01:55:00,
2013-04-26 22:00:00,52.2,24.6,29.65,SSW,192,5.0,6.0,34,0.00,,,0.00,Weather View 32 v70,2013-04-27 02:00:00,
2013-04-26 22:05:00,52.2,24.6,29.65,SSW,199,3.0,6.0,34,0.00,,,0.00,Weather View 32 v70,2013-04-27 02:05:00,
2013-04-26 22:10:00,52.2,24.6,29.65,SSW,197,4.0,6.0,34,0.00,,,0.00,Weather View 32 v70,2013-04-27 02:10:00,
2013-04-26 22:15:00,52.0,25.1,29.65,SSW,192,5.0,6.0,35,0.00,,,0.00,Weather View 32 v70,2013-04-27 02:15:00,
2013-04-26 22:20:00,52.0,25.1,29.65,SSW,193,4.0,6.0,35,0.00,,,0.00,Weather View 32 v70,2013-04-27 02:20:00,
2013-04-26 22:25:00,51.8,25.0,29.65,South,191,4.0,6.0,35,0.00,,,0.00,Weather View 32 v70,2013-04-27 02:25:00,
2013-04-26 22:30:00,51.6,25.5,29.65,SSW,194,3.0,6.0,36,0.00,,,0.00,Weather View 32 v70,2013-04-27 02:30:00,
2013-04-26 22:35:00,51.4,25.3,29.65,South,191,4.0,6.0,36,0.00,,,0.00,Weather View 32 v70,2013-04-27 02:35:00,
2013-04-26 22:40:00,51.3,25.2,29.65,South,190,4.0,6.0,36,0.00,,,0.00,Weather View 32 v70,2013-04-27 02:40:00,
2013-04-26 22:45:00,50.9,24.8,29.65,South,183,4.0,6.0,36,0.00,,,0.00,Weather View 32 v70,2013-04-27 02:45:00,
2013-04-26 22:50:00,50.7,25.3,29.65,SSW,199,5.0,6.0,37,0.00,,,0.00,Weather View 32 v70,2013-04-27 02:50:00,
2013-04-26 22:55:00,50.9,24.8,29.65,South,182,3.0,6.0,36,0.00,,,0.00,Weather View 32 v70,2013-04-27 02:55:00,
2013-04-26 23:00:00,50.9,24.8,29.65,South,190,3.0,6.0,36,0.00,,,0.00,Weather View 32 v70,2013-04-27 03:00:00,
2013-04-26 23:05:00,50.7,25.3,29.65,South,184,3.0,6.0,37,0.00,,,0.00,Weather View 32 v70,2013-04-27 03:05:00,
2013-04-26 23:10:00,50.7,25.3,29.65,SSW,194,4.0,6.0,37,0.00,,,0.00,Weather View 32 v70,2013-04-27 03:10:00,
2013-04-26 23:15:00,50.5,25.2,29.65,SSW,192,3.0,6.0,37,0.00,,,0.00,Weather View 32 v70,2013-04-27 03:15:00,
2013-04-26 23:20:00,50.5,25.2,29.65,South,190,4.0,8.0,37,0.00,,,0.00,Weather View 32 v70,2013-04-27 03:20:00,
2013-04-26 23:25:00,50.5,25.2,29.65,SSW,195,3.0,8.0,37,0.00,,,0.00,Weather View 32 v70,2013-04-27 03:25:00,
2013-04-26 23:30:00,50.5,25.2,29.65,South,187,4.0,8.0,37,0.00,,,0.00,Weather View 32 v70,2013-04-27 03:30:00,
2013-04-26 23:35:00,50.4,25.0,29.65,South,182,3.0,8.0,37,0.00,,,0.00,Weather View 32 v70,2013-04-27 03:35:00,
2013-04-26 23:40:00,50.4,25.0,29.65,South,190,3.0,8.0,37,0.00,,,0.00,Weather View 32 v70,2013-04-27 03:40:00,
2013-04-26 23:45:00,50.2,24.9,29.65,SSW,194,3.0,8.0,37,0.00,,,0.00,Weather View 32 v70,2013-04-27 03:45:00,
2013-04-26 23:50:00,50.0,24.7,29.65,SSW,193,4.0,8.0,37,0.00,,,0.00,Weather View 32 v70,2013-04-27 03:50:00,
2013-04-26 23:55:00,49.8,24.5,29.65,South,190,3.0,8.0,37,0.00,,,0.00,Weather View 32 v70,2013-04-27 03:55:00,